Aérodrome :
LOGIN :

S'inscrire | Disclaimer

   EN    FR    IT 

 










Légende :    VFR   VFR Marginal   IFR   IFR Intensif   IFR Très Intensif
Visi : 
Plafond : 
>= 8 km
>= 3000ft
5 à 8 km
1000 à 3000 ft
1500m à 5 km
500 à 1000 ft
800 à 1500m
200 à 500 ft
< 800m
< 200 ft
Symboles :   Orages  Brouillard  Fortes neiges  Fortes précipitations  Vent > 20 kt
SIGMETs :   Divers  Orages  Givrage  Turbulence  Onde Orograph.  Cendres Volcan.







- Altitude de l'aérodrome : 348 ft
- Code IATA : STN
- Voir les cartes d'approche


EGSS - London Stansted

DERNIER METAR :
  • 241550Z AUTO 06013KT 9999 NCD 21/11 Q1018

METARs EXPIRÉS :
  • 241520Z AUTO 07014KT 9999 NCD 22/10 Q1018
  • 241450Z AUTO 07014KT 9999 NCD 23/10 Q1018
  • 241350Z AUTO 06010KT 9999 NCD 23/11 Q1019
  • 241320Z 06012KT 9999 FEW040 24/12 Q1019
  • 241250Z AUTO 05012KT 9999 NCD 23/12 Q1019

TAF TAF EGSS
Valide du 24 à 12h jusqu'au 25 à 18h UTC


241108Z 2412/2518 02008KT 9999 SCT025
TEMPO 2415/2507 6000 SHRA
PROB30
TEMPO 2416/2502 3000 +SHRA
BECMG 2423/2502 7000 BKN007
TEMPO 2423/2509 3000 BR BKN003
PROB40 2501/2507 0300 FG BKN001
BECMG 2509/2512 9999 SCT017
ATIS : +44 1279 669 325
Pas de NOTAMs connus pour ce terrain.



MET'MAP, la Météo Aéronautique d'un coup d'oeil ! - Copyright ORBIFLY Décembre 2007 - Disclaimer

ORBIFLY MET'MAP TEAM :

Programmation & Développement : Alexandra Zaïnal
Conception & Développement : Baudouin d'Aumeries
Co-Programmation & Développement : Marc-Olivier Méhu
Soutien technique & logistique : Manuel Goepfert

Contact : metmap@orbifly.com




SOURCES & CREDITS :

   NOAA